Time;durP1;ratioP1;P1;durP2;ratioP2;P2;SDS_P1;SDS_P2;PMS_P1;PMS_P2;Temp;Humidity;BMP_temperature;BMP_pressure;BME280_temperature;BME280_humidity;BME280_pressure;Samples;Min_cycle;Max_cycle;Signal;HPM_P1;HPM_P2
2021/08/08 00:02:18;;;;;;;5.00;3.68;;;;;;;20.46;58.29;99335.61;128280;1095;22364;-78
2021/08/08 00:04:48;;;;;;;6.78;3.90;;;;;;;20.49;57.99;99337.75;128249;1095;22346;-78
2021/08/08 00:07:18;;;;;;;6.85;4.10;;;;;;;20.49;58.19;99327.02;128595;1094;22343;-78
2021/08/08 00:09:47;;;;;;;6.48;3.63;;;;;;;20.50;58.23;99317.12;128539;1094;22359;-78
2021/08/08 00:12:17;;;;;;;6.45;3.70;;;;;;;20.52;58.32;99318.48;128559;1095;22345;-78
2021/08/08 00:14:47;;;;;;;5.10;3.90;;;;;;;20.56;58.09;99311.56;128135;1098;22358;-78
2021/08/08 00:17:18;;;;;;;5.28;3.90;;;;;;;20.57;58.49;99310.48;128162;1098;22372;-77
2021/08/08 00:19:48;;;;;;;5.65;3.73;;;;;;;20.61;58.71;99308.09;128145;1098;22612;-78
2021/08/08 00:22:17;;;;;;;6.10;3.90;;;;;;;20.62;58.10;99297.08;128210;1096;22353;-77
2021/08/08 00:24:47;;;;;;;6.53;3.58;;;;;;;20.64;58.70;99297.64;127934;1098;22373;-78
2021/08/08 00:27:17;;;;;;;5.65;3.48;;;;;;;20.62;58.90;99294.40;128183;1098;24817;-78
2021/08/08 00:29:47;;;;;;;5.73;3.73;;;;;;;20.61;58.68;99294.67;128155;1098;24237;-78
2021/08/08 00:32:16;;;;;;;4.88;3.83;;;;;;;20.60;59.41;99299.23;128187;1095;22362;-78
2021/08/08 00:34:47;;;;;;;4.20;3.40;;;;;;;20.60;59.34;99326.06;128283;1095;22369;-77
2021/08/08 00:37:17;;;;;;;7.30;3.60;;;;;;;20.62;59.57;99313.19;128572;1094;22359;-78
2021/08/08 00:39:47;;;;;;;7.25;4.05;;;;;;;20.62;59.76;99315.86;128594;1095;22403;-77
2021/08/08 00:42:18;;;;;;;7.90;4.15;;;;;;;20.63;60.68;99308.65;128514;1095;25007;-77
2021/08/08 00:44:48;;;;;;;4.93;3.70;;;;;;;20.62;60.70;99299.77;128165;1098;22367;-78
2021/08/08 00:47:20;;;;;;;13.93;5.98;;;;;;;20.58;61.29;99287.14;128211;1096;22552;-78
2021/08/08 00:49:49;;;;;;;10.08;4.70;;;;;;;20.33;62.23;99263.63;128146;1098;22354;-78
2021/08/08 00:52:19;;;;;;;6.28;4.28;;;;;;;20.03;63.41;99256.98;128205;1097;22233;-78
2021/08/08 00:54:49;;;;;;;7.88;4.60;;;;;;;19.88;64.82;99270.24;128182;1098;22375;-78
2021/08/08 00:57:19;;;;;;;7.10;4.65;;;;;;;19.77;66.00;99265.87;127929;1098;22368;-78
2021/08/08 00:59:49;;;;;;;7.33;4.60;;;;;;;19.71;66.79;99268.48;128242;1097;22355;-78
2021/08/08 01:02:22;;;;;;;8.45;4.63;;;;;;;19.68;67.44;99268.98;128229;1095;22353;-78
2021/08/08 01:05:03;;;;;;;5.73;4.73;;;;;;;19.65;67.85;99272.17;128347;1095;22348;-78
2021/08/08 01:08:09;;;;;;;7.60;4.75;;;;;;;19.60;68.62;99277.47;128236;1095;22365;-78
2021/08/08 01:10:42;;;;;;;6.13;4.70;;;;;;;19.55;68.71;99287.31;128376;1093;22356;-78
2021/08/08 01:13:14;;;;;;;7.00;4.30;;;;;;;19.52;69.03;99302.81;128597;1095;22345;-79
2021/08/08 01:15:44;;;;;;;4.90;3.68;;;;;;;19.52;69.41;99326.13;128317;1095;22359;-79
2021/08/08 01:18:15;;;;;;;5.27;4.20;;;;;;;19.49;69.84;99351.56;128540;1095;22348;-78
2021/08/08 01:20:50;;;;;;;8.75;5.25;;;;;;;19.42;70.06;99425.91;128237;1095;22338;-78
2021/08/08 01:23:24;;;;;;;9.90;6.33;;;;;;;19.32;70.62;99427.65;128560;1095;24237;-79
2021/08/08 01:25:55;;;;;;;9.05;5.33;;;;;;;19.22;71.23;99423.77;128291;1095;22350;-79
2021/08/08 01:28:25;;;;;;;7.85;5.73;;;;;;;19.15;71.75;99412.43;128298;1095;22429;-79
2021/08/08 01:30:54;;;;;;;11.98;6.15;;;;;;;19.09;71.92;99405.38;128270;1095;22355;-78
2021/08/08 01:33:25;;;;;;;10.20;5.03;;;;;;;19.05;72.51;99401.58;128586;1093;22635;-78
2021/08/08 01:36:07;;;;;;;13.70;6.38;;;;;;;19.01;72.77;99389.76;128579;1095;22346;-77
2021/08/08 01:38:43;;;;;;;9.35;5.25;;;;;;;18.99;73.03;99373.95;128276;1095;22342;-79
2021/08/08 01:41:17;;;;;;;10.95;5.80;;;;;;;18.98;73.76;99379.55;128295;1095;22366;-77
2021/08/08 01:43:52;;;;;;;8.50;5.40;;;;;;;18.98;74.07;99360.81;128284;1095;22365;-78
2021/08/08 01:46:25;;;;;;;6.60;5.07;;;;;;;18.96;74.04;99349.53;128284;1095;22348;-78
2021/08/08 01:49:06;;;;;;;7.68;5.13;;;;;;;18.93;74.50;99350.05;128314;1095;22362;-78
2021/08/08 01:51:37;;;;;;;8.13;5.00;;;;;;;18.92;74.89;99337.70;128547;1095;22343;-78
2021/08/08 01:54:07;;;;;;;7.50;5.17;;;;;;;18.89;74.82;99336.33;128312;1095;22360;-78
2021/08/08 01:56:37;;;;;;;10.70;5.38;;;;;;;18.87;75.26;99348.35;128619;1095;23262;-77
2021/08/08 01:59:07;;;;;;;8.10;5.70;;;;;;;18.84;75.26;99355.00;128327;1095;22459;-77
2021/08/08 02:01:38;;;;;;;7.33;4.53;;;;;;;18.80;75.49;99343.98;128601;1095;22394;-78
2021/08/08 02:04:22;;;;;;;7.63;5.20;;;;;;;18.79;75.82;99355.75;128587;1093;22343;-78
2021/08/08 02:06:58;;;;;;;10.80;5.30;;;;;;;18.77;76.18;99355.17;128512;1095;22710;-77
2021/08/08 02:09:28;;;;;;;5.73;4.50;;;;;;;18.77;76.19;99371.22;128305;1095;22344;-78
2021/08/08 02:11:58;;;;;;;8.85;5.25;;;;;;;18.76;76.82;99363.42;128395;1095;22346;-78
2021/08/08 02:14:30;;;;;;;6.45;5.55;;;;;;;18.74;76.85;99361.02;128565;1095;22471;-78
2021/08/08 02:17:03;;;;;;;8.17;5.10;;;;;;;18.71;76.70;99366.02;128270;1095;22346;-78
2021/08/08 02:19:33;;;;;;;7.98;6.40;;;;;;;18.68;76.59;99361.95;128522;1095;22362;-78
2021/08/08 02:22:04;;;;;;;8.33;6.40;;;;;;;18.65;76.49;99373.14;128591;1095;22347;-78
2021/08/08 02:24:41;;;;;;;8.00;7.20;;;;;;;18.61;76.76;99373.89;128257;1094;22350;-79
2021/08/08 02:27:16;;;;;;;10.05;7.30;;;;;;;18.58;77.00;99388.55;128228;1095;23550;-78
2021/08/08 02:29:49;;;;;;;15.60;10.78;;;;;;;18.51;76.70;99380.69;128570;1093;22340;-78
2021/08/08 02:32:19;;;;;;;9.70;8.80;;;;;;;18.44;76.50;99374.70;128540;1095;22343;-79
2021/08/08 02:34:49;;;;;;;13.60;12.30;;;;;;;18.34;76.70;99361.16;128240;1095;22357;-79
2021/08/08 02:37:20;;;;;;;10.10;9.00;;;;;;;18.28;77.28;99349.56;128578;1095;22362;-78
2021/08/08 02:39:53;;;;;;;9.25;8.25;;;;;;;18.26;77.53;99349.02;128257;1095;22789;-78
2021/08/08 02:42:25;;;;;;;8.20;7.40;;;;;;;18.23;77.22;99356.72;128554;1095;22373;-78
2021/08/08 02:44:54;;;;;;;9.48;8.48;;;;;;;18.19;77.56;99364.38;128283;1095;24093;-78
2021/08/08 02:47:27;;;;;;;8.40;6.45;;;;;;;18.18;77.46;99365.44;128292;1095;22362;-78
2021/08/08 02:49:58;;;;;;;6.03;5.25;;;;;;;18.15;77.75;99375.80;128284;1095;25021;-77
2021/08/08 02:52:28;;;;;;;6.65;5.38;;;;;;;18.09;77.77;99372.22;128524;1095;22791;-78
2021/08/08 02:55:00;;;;;;;5.58;5.00;;;;;;;18.08;77.75;99387.45;128263;1095;22343;-79
2021/08/08 02:57:31;;;;;;;7.15;5.10;;;;;;;18.07;77.76;99401.07;128267;1095;23017;-77
2021/08/08 03:00:01;;;;;;;6.90;4.90;;;;;;;18.06;78.13;99400.27;128281;1095;22364;-78
2021/08/08 03:02:32;;;;;;;5.50;5.00;;;;;;;18.05;77.97;99414.66;128637;1094;22355;-78
2021/08/08 03:05:03;;;;;;;6.37;5.27;;;;;;;18.05;78.20;99421.86;128355;1095;24492;-77
2021/08/08 03:07:33;;;;;;;6.03;5.38;;;;;;;18.04;77.81;99428.27;128263;1095;22446;-77
2021/08/08 03:10:07;;;;;;;7.13;5.20;;;;;;;18.03;78.08;99427.47;128010;1098;22364;-77
2021/08/08 03:12:37;;;;;;;8.65;6.25;;;;;;;18.02;77.92;99441.05;127989;1098;22376;-77
2021/08/08 03:15:12;;;;;;;7.73;6.93;;;;;;;18.01;77.93;99452.80;128204;1098;22369;-78
2021/08/08 03:17:42;;;;;;;7.60;6.65;;;;;;;17.99;78.12;99457.55;128151;1098;22375;-77
2021/08/08 03:20:13;;;;;;;6.88;6.18;;;;;;;17.99;77.96;99478.94;128185;1098;22375;-78
2021/08/08 03:22:42;;;;;;;6.20;4.90;;;;;;;17.97;78.13;99473.84;128159;1098;22356;-78
2021/08/08 03:25:13;;;;;;;6.90;4.40;;;;;;;17.94;78.42;99481.52;128188;1098;22387;-78
2021/08/08 03:27:43;;;;;;;6.70;3.58;;;;;;;17.90;77.99;99491.06;128267;1095;22347;-78
2021/08/08 03:30:14;;;;;;;6.10;3.88;;;;;;;17.85;77.94;99495.23;128299;1095;22354;-78
2021/08/08 03:32:44;;;;;;;7.25;3.85;;;;;;;17.81;78.13;99504.77;128240;1095;22813;-78
2021/08/08 03:35:14;;;;;;;5.83;4.10;;;;;;;17.79;78.19;99506.89;128606;1095;22416;-78
2021/08/08 03:37:44;;;;;;;5.85;4.13;;;;;;;17.78;78.46;99521.27;128519;1095;22368;-79
2021/08/08 03:40:15;;;;;;;6.10;3.50;;;;;;;17.78;78.25;99539.16;128582;1095;22363;-78
2021/08/08 03:42:48;;;;;;;5.15;3.33;;;;;;;17.75;78.03;99553.77;128259;1095;22347;-78
2021/08/08 03:45:19;;;;;;;6.73;3.28;;;;;;;17.69;78.22;99562.70;128237;1095;22406;-77
2021/08/08 03:47:49;;;;;;;5.30;3.40;;;;;;;17.62;77.92;99560.16;128252;1095;22361;-77
2021/08/08 03:50:19;;;;;;;4.20;3.20;;;;;;;17.57;78.35;99568.07;128265;1095;22359;-77
2021/08/08 03:52:49;;;;;;;4.68;2.88;;;;;;;17.53;78.65;99560.77;128570;1095;22358;-78
2021/08/08 03:55:20;;;;;;;5.55;2.88;;;;;;;17.49;78.66;99571.07;128294;1095;22389;-77
2021/08/08 03:57:50;;;;;;;5.40;3.18;;;;;;;17.46;78.74;99576.06;128280;1095;22190;-78
2021/08/08 04:00:24;;;;;;;6.88;2.98;;;;;;;17.45;78.81;99582.45;128246;1095;22385;-78
2021/08/08 04:02:53;;;;;;;4.70;2.83;;;;;;;17.45;79.11;99585.94;128282;1095;22355;-78
2021/08/08 04:05:24;;;;;;;5.73;2.75;;;;;;;17.45;79.08;99593.95;128537;1095;22350;-78
2021/08/08 04:07:55;;;;;;;3.28;2.53;;;;;;;17.46;79.18;99600.09;128588;1095;22314;-77
2021/08/08 04:10:25;;;;;;;5.03;2.60;;;;;;;17.46;78.96;99608.10;128294;1095;22378;-77
2021/08/08 04:12:55;;;;;;;4.25;2.75;;;;;;;17.46;79.22;99606.27;128563;1095;22341;-78
2021/08/08 04:15:24;;;;;;;6.75;2.85;;;;;;;17.44;79.24;99602.20;128253;1095;22349;-79
2021/08/08 04:17:54;;;;;;;7.18;2.78;;;;;;;17.45;79.33;99591.28;128529;1093;22350;-77
2021/08/08 04:20:24;;;;;;;4.03;2.48;;;;;;;17.47;79.56;99593.73;128562;1095;22911;-78
2021/08/08 04:22:54;;;;;;;3.58;2.35;;;;;;;17.49;79.48;99592.44;128189;1098;22359;-77
2021/08/08 04:25:24;;;;;;;3.05;2.48;;;;;;;17.51;79.39;99562.84;128161;1098;22853;-78
2021/08/08 04:27:54;;;;;;;3.98;2.68;;;;;;;17.56;79.44;99563.78;128173;1098;22372;-78
2021/08/08 04:30:23;;;;;;;2.60;1.95;;;;;;;17.58;79.76;99553.66;128183;1098;22388;-78
2021/08/08 04:32:54;;;;;;;4.03;2.10;;;;;;;17.62;79.70;99556.67;128200;1096;22355;-78
2021/08/08 04:35:23;;;;;;;6.00;2.60;;;;;;;17.66;79.64;99579.23;128175;1098;22491;-79
2021/08/08 04:37:53;;;;;;;5.65;2.60;;;;;;;17.70;79.77;99583.05;128188;1098;24498;-78
2021/08/08 04:40:25;;;;;;;4.35;2.63;;;;;;;17.74;79.80;99605.57;128233;1095;22421;-79
2021/08/08 04:42:55;;;;;;;2.38;1.65;;;;;;;17.79;79.65;99612.91;128297;1095;22342;-78
2021/08/08 04:45:26;;;;;;;4.60;2.10;;;;;;;17.82;79.85;99607.91;128272;1095;22362;-78
2021/08/08 04:47:56;;;;;;;4.15;2.60;;;;;;;17.83;79.80;99614.91;128321;1095;22359;-78
2021/08/08 04:50:26;;;;;;;2.78;1.95;;;;;;;17.87;80.00;99632.08;128259;1095;22356;-78
2021/08/08 04:52:55;;;;;;;2.90;1.77;;;;;;;17.90;79.56;99644.17;128297;1095;22359;-78
2021/08/08 04:55:25;;;;;;;3.03;1.70;;;;;;;17.93;79.42;99656.27;128561;1095;22360;-79
2021/08/08 04:57:55;;;;;;;4.20;2.10;;;;;;;17.95;79.24;99664.84;128581;1095;22359;-78
2021/08/08 05:00:25;;;;;;;4.25;1.95;;;;;;;17.97;79.24;99660.09;128608;1095;22343;-77
2021/08/08 05:02:56;;;;;;;3.03;1.83;;;;;;;18.00;79.25;99681.00;128294;1094;22414;-78
2021/08/08 05:05:26;;;;;;;2.90;1.60;;;;;;;18.01;79.00;99694.12;128300;1095;22362;-78
2021/08/08 05:07:56;;;;;;;4.45;2.23;;;;;;;18.02;79.13;99690.39;128567;1095;23108;-77
2021/08/08 05:10:26;;;;;;;2.65;1.85;;;;;;;18.00;78.59;99686.34;128317;1095;22359;-77
2021/08/08 05:12:57;;;;;;;4.08;2.28;;;;;;;17.99;78.66;99712.23;128541;1095;24495;-78
2021/08/08 05:15:27;;;;;;;3.65;2.80;;;;;;;17.96;78.37;99709.21;128262;1095;22344;-78
2021/08/08 05:17:58;;;;;;;;;;;;;;;17.88;78.49;99715.72;128315;1095;22347;-78
2021/08/08 05:20:28;;;;;;;4.48;2.55;;;;;;;17.81;78.78;99723.84;128283;1095;23078;-78
2021/08/08 05:22:59;;;;;;;6.97;2.70;;;;;;;17.83;78.66;99726.30;128277;1094;22347;-77
2021/08/08 05:25:29;;;;;;;3.38;2.45;;;;;;;17.85;78.44;99735.69;128580;1095;22341;-77
2021/08/08 05:27:59;;;;;;;4.08;2.70;;;;;;;17.88;78.36;99748.59;128560;1095;22341;-77
2021/08/08 05:30:28;;;;;;;4.17;3.53;;;;;;;17.90;78.06;99750.24;128575;1095;22343;-77
2021/08/08 05:32:58;;;;;;;7.87;7.07;;;;;;;17.90;78.22;99756.39;128313;1093;24183;-77
2021/08/08 05:35:28;;;;;;;3.55;2.70;;;;;;;17.92;78.37;99756.16;128592;1095;22342;-77
2021/08/08 05:37:58;;;;;;;3.55;2.73;;;;;;;17.92;78.08;99748.95;128614;1093;22348;-77
2021/08/08 05:40:28;;;;;;;5.10;2.93;;;;;;;17.94;78.18;99751.41;128269;1095;22795;-77
2021/08/08 05:42:58;;;;;;;4.53;3.15;;;;;;;17.97;78.15;99774.99;128617;1095;22360;-77
2021/08/08 05:45:28;;;;;;;4.37;3.17;;;;;;;17.97;77.65;99774.99;128606;1095;22347;-77
2021/08/08 05:47:58;;;;;;;6.08;3.08;;;;;;;17.98;77.78;99782.77;128622;1095;22367;-77
2021/08/08 05:50:31;;;;;;;6.18;3.73;;;;;;;18.00;77.89;99785.23;128301;1095;22344;-77
2021/08/08 05:53:01;;;;;;;4.33;3.50;;;;;;;18.01;77.77;99784.98;128609;1095;22354;-77
2021/08/08 05:55:31;;;;;;;3.58;3.10;;;;;;;18.03;77.73;99790.12;128593;1095;24469;-77
2021/08/08 05:58:00;;;;;;;4.13;3.33;;;;;;;18.04;77.98;99802.42;128592;1095;22346;-77
2021/08/08 06:00:30;;;;;;;7.25;3.53;;;;;;;18.05;77.57;99804.05;128630;1095;22357;-78
2021/08/08 06:03:11;;;;;;;6.08;3.38;;;;;;;18.04;77.72;99813.12;128296;1095;22426;-79
2021/08/08 06:05:44;;;;;;;6.75;3.90;;;;;;;18.03;77.59;99814.98;128356;1095;22350;-77
2021/08/08 06:08:14;;;;;;;4.05;3.08;;;;;;;18.00;77.02;99836.00;128311;1095;22538;-78
2021/08/08 06:10:44;;;;;;;5.93;3.75;;;;;;;17.98;77.12;99849.58;128616;1095;22365;-79
2021/08/08 06:13:17;;;;;;;5.10;3.60;;;;;;;17.99;77.27;99855.73;128642;1095;22359;-78
2021/08/08 06:15:49;;;;;;;3.75;3.15;;;;;;;17.99;77.61;99856.55;128602;1094;22377;-79
2021/08/08 06:18:18;;;;;;;4.28;3.45;;;;;;;18.01;76.86;99846.45;128166;1098;22362;-79
2021/08/08 06:20:48;;;;;;;7.93;3.58;;;;;;;18.03;77.32;99840.89;128177;1098;24253;-78
2021/08/08 06:23:23;;;;;;;4.60;3.70;;;;;;;18.04;77.35;99837.98;128201;1098;22372;-78
2021/08/08 06:25:53;;;;;;;3.83;3.43;;;;;;;18.11;77.54;99836.02;128199;1098;22378;-78
2021/08/08 06:28:23;;;;;;;4.20;2.60;;;;;;;18.20;77.72;99839.18;128229;1097;22355;-76
2021/08/08 06:30:53;;;;;;;3.68;2.58;;;;;;;18.27;77.37;99852.44;128211;1098;22437;-76
2021/08/08 06:33:23;;;;;;;6.58;2.68;;;;;;;18.33;77.42;99862.22;127987;1098;22372;-77
2021/08/08 06:35:53;;;;;;;3.75;3.38;;;;;;;18.38;76.84;99865.00;128253;1095;25072;-77
2021/08/08 06:38:24;;;;;;;3.75;2.73;;;;;;;18.40;76.61;99857.58;128557;1095;24236;-76
2021/08/08 06:40:54;;;;;;;3.40;2.90;;;;;;;18.42;76.62;99854.66;128594;1095;22364;-75
2021/08/08 06:43:24;;;;;;;4.03;3.15;;;;;;;18.38;75.84;99861.52;128658;1095;22348;-75
2021/08/08 06:45:54;;;;;;;4.15;3.60;;;;;;;18.39;76.51;99852.44;128239;1095;22346;-76
2021/08/08 06:48:24;;;;;;;4.10;3.13;;;;;;;18.45;76.47;99851.52;128307;1095;22371;-76
2021/08/08 06:50:55;;;;;;;6.33;4.65;;;;;;;18.54;76.48;99858.16;128290;1095;22364;-75
2021/08/08 06:53:24;;;;;;;4.27;2.83;;;;;;;18.58;76.20;99859.31;128311;1095;22772;-76
2021/08/08 06:55:55;;;;;;;3.70;2.60;;;;;;;18.62;76.15;99857.80;128268;1093;22381;-77
2021/08/08 06:58:25;;;;;;;2.90;2.47;;;;;;;18.65;76.09;99845.83;128352;1095;22339;-77
2021/08/08 07:00:54;;;;;;;3.63;2.75;;;;;;;18.71;76.15;99829.66;128541;1094;22380;-76
2021/08/08 07:03:24;;;;;;;5.90;4.98;;;;;;;18.89;76.48;99834.08;128571;1095;22353;-75
2021/08/08 07:05:54;;;;;;;5.08;3.75;;;;;;;19.13;76.56;99834.06;128554;1095;22343;-76
2021/08/08 07:08:24;;;;;;;8.08;3.65;;;;;;;19.37;76.20;99834.81;128575;1095;22343;-77
2021/08/08 07:10:54;;;;;;;6.33;3.38;;;;;;;19.51;75.38;99815.53;128481;1095;22604;-77
2021/08/08 07:13:24;;;;;;;5.63;3.33;;;;;;;19.59;74.20;99818.88;128392;1095;22343;-76
2021/08/08 07:15:54;;;;;;;3.10;2.68;;;;;;;19.64;73.67;99846.61;128274;1095;22354;-76
2021/08/08 07:18:23;;;;;;;3.23;2.88;;;;;;;19.66;73.08;99847.20;128278;1095;22356;-76
2021/08/08 07:20:58;;;;;;;4.78;4.33;;;;;;;19.74;73.21;99860.20;128284;1095;22333;-77
2021/08/08 07:23:29;;;;;;;3.80;3.43;;;;;;;19.85;72.93;99866.55;128619;1095;24469;-76
2021/08/08 07:25:59;;;;;;;3.70;2.55;;;;;;;20.06;73.20;99835.57;128605;1095;22350;-75
2021/08/08 07:28:29;;;;;;;4.23;2.90;;;;;;;20.37;73.23;99847.59;128379;1095;22362;-76
2021/08/08 07:30:59;;;;;;;3.28;2.60;;;;;;;20.74;71.75;99873.13;128293;1095;22353;-75
2021/08/08 07:33:28;;;;;;;6.58;5.53;;;;;;;20.91;69.78;99884.66;128257;1095;23122;-75
2021/08/08 07:35:58;;;;;;;5.58;4.03;;;;;;;20.88;68.77;99885.14;128242;1095;22359;-78
2021/08/08 07:38:28;;;;;;;4.05;3.08;;;;;;;20.76;68.18;99897.84;128489;1095;22363;-75
2021/08/08 07:40:58;;;;;;;3.68;2.70;;;;;;;20.61;67.84;99875.09;128520;1095;22359;-76
2021/08/08 07:43:41;;;;;;;5.68;2.75;;;;;;;20.43;67.71;99867.28;128582;1095;22798;-77
2021/08/08 07:46:12;;;;;;;;;;;;;;;20.32;67.85;99903.02;128491;1095;22360;-78
2021/08/08 07:48:44;;;;;;;2.93;2.60;;;;;;;20.21;68.62;99892.13;128515;1095;21253;-79
2021/08/08 07:51:15;;;;;;;4.65;2.85;;;;;;;20.22;68.74;99904.47;128580;1095;24492;-78
2021/08/08 07:53:45;;;;;;;4.95;2.45;;;;;;;20.25;68.92;99903.17;128590;1095;22356;-76
2021/08/08 07:56:15;;;;;;;4.75;3.05;;;;;;;20.33;68.92;99885.89;128264;1095;22392;-77
2021/08/08 07:58:46;;;;;;;;;;;;;;;20.41;68.97;99870.19;128306;1095;22355;-75
2021/08/08 08:01:16;;;;;;;6.00;2.95;;;;;;;20.53;68.75;99862.10;128474;1095;21257;-75
2021/08/08 08:03:46;;;;;;;5.33;3.45;;;;;;;20.76;68.33;99871.00;128306;1095;22356;-75
2021/08/08 08:06:16;;;;;;;4.10;2.68;;;;;;;20.99;67.79;99892.27;128553;1095;22350;-77
2021/08/08 08:08:46;;;;;;;4.70;3.35;;;;;;;21.34;67.56;99880.38;128307;1095;22347;-76
2021/08/08 08:11:17;;;;;;;4.88;2.80;;;;;;;21.59;66.53;99867.28;128597;1093;22341;-76
2021/08/08 08:13:47;;;;;;;2.58;2.38;;;;;;;21.75;65.15;99856.67;128273;1095;24795;-76
2021/08/08 08:16:20;;;;;;;4.05;2.15;;;;;;;21.81;64.30;99842.22;128596;1095;22345;-76
2021/08/08 08:18:49;;;;;;;2.63;2.20;;;;;;;21.91;64.21;99876.47;128286;1095;22350;-77
2021/08/08 08:21:19;;;;;;;4.90;2.55;;;;;;;22.00;64.07;99891.09;128246;1093;22336;-75
2021/08/08 08:23:49;;;;;;;2.98;2.63;;;;;;;22.05;63.47;99899.19;128602;1095;24326;-76
2021/08/08 08:26:18;;;;;;;5.45;2.25;;;;;;;22.07;63.12;99902.45;128675;1095;22436;-78
2021/08/08 08:28:48;;;;;;;7.65;3.00;;;;;;;22.04;62.55;99906.45;128275;1095;22344;-77
2021/08/08 08:31:18;;;;;;;6.60;2.88;;;;;;;21.95;63.20;99916.03;128612;1095;24485;-80
2021/08/08 08:33:48;;;;;;;3.50;2.67;;;;;;;21.97;62.97;99927.36;128315;1095;24236;-78
2021/08/08 08:36:18;;;;;;;4.95;2.85;;;;;;;21.93;62.45;99928.94;128333;1095;22407;-77
2021/08/08 08:38:47;;;;;;;10.33;6.58;;;;;;;21.84;62.47;99939.33;128389;1095;22367;-77
2021/08/08 08:41:25;;;;;;;6.10;5.15;;;;;;;21.78;62.99;99947.58;128586;1095;24237;-77
2021/08/08 08:43:56;;;;;;;4.05;2.78;;;;;;;21.79;63.19;99933.91;128328;1095;22317;-77
2021/08/08 08:46:27;;;;;;;6.63;2.75;;;;;;;21.82;62.77;99927.19;128254;1097;22356;-78
2021/08/08 08:48:57;;;;;;;;;;;;;;;21.80;62.56;99935.52;128365;1097;22358;-77
2021/08/08 08:51:43;;;;;;;4.83;3.98;;;;;;;21.77;62.29;99935.21;128187;1098;22099;-77
2021/08/08 08:54:15;;;;;;;2.95;2.25;;;;;;;21.80;62.14;99940.90;128241;1098;22343;-77
2021/08/08 08:56:44;;;;;;;3.78;2.70;;;;;;;21.77;61.61;99956.72;128245;1097;22354;-77
2021/08/08 08:59:15;;;;;;;4.90;2.30;;;;;;;21.70;61.74;99964.17;128182;1098;22381;-76
2021/08/08 09:01:45;;;;;;;3.85;2.85;;;;;;;21.65;61.80;99967.59;128192;1098;22359;-76
2021/08/08 09:04:15;;;;;;;4.60;1.98;;;;;;;21.64;61.78;99963.28;128110;1095;22362;-77
2021/08/08 09:06:47;;;;;;;4.10;2.55;;;;;;;21.61;61.87;99959.21;128601;1093;22348;-77
2021/08/08 09:09:17;;;;;;;6.75;5.23;;;;;;;21.67;62.01;99964.67;128352;1093;22343;-77
2021/08/08 09:11:47;;;;;;;3.53;2.30;;;;;;;21.74;61.77;99965.29;128289;1095;22349;-78
2021/08/08 09:14:22;;;;;;;3.60;2.73;;;;;;;21.91;61.94;99974.09;128576;1095;22343;-77
2021/08/08 09:16:55;;;;;;;2.70;1.80;;;;;;;22.08;61.13;99974.81;128322;1095;24485;-76
2021/08/08 09:19:34;;;;;;;3.13;1.83;;;;;;;22.28;60.63;99986.88;128348;1095;22339;-76
2021/08/08 09:22:22;;;;;;;2.68;2.00;;;;;;;22.33;59.46;99989.64;128588;1094;22359;-77
2021/08/08 09:24:51;;;;;;;4.40;2.30;;;;;;;22.46;59.62;99983.01;128656;1095;22463;-77
2021/08/08 09:27:34;;;;;;;2.38;1.93;;;;;;;22.84;59.71;99989.27;128606;1095;22358;-77
2021/08/08 09:30:19;;;;;;;4.25;2.03;;;;;;;23.27;58.76;99990.95;128230;1095;22357;-77
2021/08/08 09:33:06;;;;;;;3.95;2.10;;;;;;;23.81;58.31;100001.49;128312;1095;22354;-77
2021/08/08 09:35:42;;;;;;;2.93;1.68;;;;;;;24.27;56.13;100004.33;128662;1093;22344;-76
2021/08/08 09:38:12;;;;;;;2.93;1.68;;;;;;;24.40;53.82;100009.25;128594;1095;22347;-78
2021/08/08 09:40:43;;;;;;;3.33;1.65;;;;;;;24.61;54.18;100004.67;128641;1095;22370;-77
2021/08/08 09:43:12;;;;;;;3.13;1.45;;;;;;;24.82;53.21;100001.98;128630;1094;23156;-77
2021/08/08 09:45:44;;;;;;;3.27;1.63;;;;;;;24.98;52.19;100016.30;128457;1094;22362;-76
2021/08/08 09:48:14;;;;;;;2.60;1.53;;;;;;;25.02;51.57;100007.36;128367;1095;23272;-78
2021/08/08 09:50:45;;;;;;;2.73;1.93;;;;;;;24.99;50.79;100010.64;128611;1095;22561;-77
2021/08/08 09:53:20;;;;;;;1.90;1.50;;;;;;;24.93;51.22;100005.51;128594;1095;22362;-78
2021/08/08 09:55:51;;;;;;;2.05;1.18;;;;;;;25.08;50.99;100008.18;128566;1095;22344;-76
2021/08/08 09:58:24;;;;;;;2.48;1.33;;;;;;;25.19;50.66;100014.41;128648;1095;22350;-76
2021/08/08 10:01:00;;;;;;;1.90;1.10;;;;;;;25.35;50.16;100024.11;128384;1095;24968;-76
2021/08/08 10:03:30;;;;;;;3.33;1.73;;;;;;;25.34;49.34;100025.20;128727;1093;22370;-78
2021/08/08 10:06:03;;;;;;;2.13;1.30;;;;;;;25.31;49.20;100033.86;128786;1092;24155;-78
2021/08/08 10:08:34;;;;;;;2.33;1.40;;;;;;;25.49;49.66;100021.64;128347;1095;22345;-76
2021/08/08 10:11:05;;;;;;;3.17;1.10;;;;;;;25.83;48.81;100026.45;128661;1093;22340;-77
2021/08/08 10:14:04;;;;;;;2.63;0.87;;;;;;;25.83;47.33;100023.75;128302;1095;22353;-76
2021/08/08 10:16:40;;;;;;;2.53;1.40;;;;;;;25.78;47.80;100028.05;128276;1096;22364;-76
2021/08/08 10:19:11;;;;;;;5.23;1.40;;;;;;;25.88;47.36;100031.83;128104;1098;23073;-77
2021/08/08 10:21:45;;;;;;;2.03;1.20;;;;;;;25.99;46.83;100036.94;128217;1098;22367;-77
2021/08/08 10:24:18;;;;;;;6.40;5.73;;;;;;;25.82;46.60;100039.15;128047;1098;22803;-77
2021/08/08 10:26:48;;;;;;;2.58;1.73;;;;;;;25.76;46.85;100043.76;128232;1098;24521;-77
2021/08/08 10:29:20;;;;;;;2.35;1.10;;;;;;;25.66;46.78;100035.68;128235;1098;24180;-76
2021/08/08 10:31:51;;;;;;;2.78;1.20;;;;;;;25.46;47.10;100041.95;128216;1098;22418;-76
2021/08/08 10:34:30;;;;;;;1.98;1.18;;;;;;;25.31;47.12;100034.66;128239;1098;22443;-77
2021/08/08 10:37:14;;;;;;;2.35;0.93;;;;;;;25.15;47.19;100035.77;128223;1098;22365;-77
2021/08/08 10:39:49;;;;;;;6.38;1.40;;;;;;;25.01;47.70;100023.86;128251;1098;22406;-76
2021/08/08 10:42:21;;;;;;;10.35;9.35;;;;;;;24.96;47.64;100021.98;128128;1098;22349;-77
2021/08/08 10:44:59;;;;;;;3.50;2.10;;;;;;;24.90;47.73;100020.36;128286;1098;25114;-76
2021/08/08 10:47:33;;;;;;;2.03;1.30;;;;;;;24.98;47.79;100014.40;128203;1098;24505;-75
2021/08/08 10:50:11;;;;;;;5.23;1.88;;;;;;;25.27;47.51;100027.39;128127;1098;22379;-75
2021/08/08 10:52:44;;;;;;;3.23;1.53;;;;;;;25.49;46.69;100029.75;128302;1098;22373;-76
2021/08/08 10:55:30;;;;;;;3.73;1.63;;;;;;;25.69;46.86;100023.48;128314;1095;22368;-76
2021/08/08 10:58:02;;;;;;;2.60;1.25;;;;;;;25.89;45.87;100030.73;128270;1095;22349;-76
2021/08/08 11:00:38;;;;;;;4.53;3.13;;;;;;;25.93;45.58;100024.52;128362;1095;22366;-77
2021/08/08 11:03:15;;;;;;;2.40;1.05;;;;;;;25.91;45.15;100029.38;128329;1095;24517;-77
2021/08/08 11:05:45;;;;;;;3.58;1.23;;;;;;;25.83;44.89;100035.38;128293;1095;22357;-76
2021/08/08 11:08:15;;;;;;;2.55;1.55;;;;;;;25.67;44.90;100031.08;128643;1095;22453;-77
2021/08/08 11:10:45;;;;;;;3.55;1.20;;;;;;;25.60;45.21;100036.77;128656;1095;22351;-77
2021/08/08 11:13:24;;;;;;;3.43;1.33;;;;;;;25.55;45.51;100044.89;128398;1095;23138;-77
2021/08/08 11:15:54;;;;;;;6.10;2.33;;;;;;;25.54;45.40;100041.38;128359;1095;24189;-76
2021/08/08 11:18:31;;;;;;;4.90;0.93;;;;;;;25.53;44.92;100041.66;128623;1095;24489;-77
2021/08/08 11:21:12;;;;;;;4.80;1.00;;;;;;;25.42;44.08;100045.45;128292;1095;22351;-77
2021/08/08 11:23:43;;;;;;;2.68;1.03;;;;;;;25.31;44.49;100048.18;128684;1095;22378;-76
2021/08/08 11:26:17;;;;;;;2.80;0.90;;;;;;;25.27;44.85;100052.52;128611;1095;22365;-77
2021/08/08 11:29:04;;;;;;;2.10;0.90;;;;;;;25.24;44.70;100053.06;128294;1095;22362;-76
2021/08/08 11:31:39;;;;;;;4.37;1.20;;;;;;;25.27;44.57;100062.53;128405;1095;22373;-76
2021/08/08 11:34:10;;;;;;;0.95;0.70;;;;;;;25.32;44.59;100059.80;128660;1095;22505;-78
2021/08/08 11:36:41;;;;;;;;;;;;;;;25.26;43.97;100052.81;128481;1095;23199;-76
2021/08/08 11:39:18;;;;;;;1.95;0.68;;;;;;;25.21;44.14;100053.60;128351;1098;22071;-76
2021/08/08 11:41:48;;;;;;;3.15;1.08;;;;;;;25.19;43.95;100063.06;128153;1098;24498;-77
2021/08/08 11:44:41;;;;;;;2.33;1.40;;;;;;;25.15;43.60;100068.20;128311;1098;22353;-76
2021/08/08 11:47:11;;;;;;;2.10;1.00;;;;;;;25.08;43.60;100071.14;128189;1098;24546;-76